createdAt,value
2019-02-15T00:00:27.480Z,64.07
2019-02-15T00:02:56.114Z,65.40
2019-02-15T00:05:24.676Z,60.20
2019-02-15T00:07:53.201Z,60.13
2019-02-15T00:10:21.757Z,65.23
2019-02-15T00:12:50.397Z,58.90
2019-02-15T00:15:19.070Z,60.00
2019-02-15T00:17:52.167Z,53.60
2019-02-15T00:20:31.342Z,65.27
2019-02-15T00:22:59.997Z,68.27
2019-02-15T00:25:28.627Z,71.50
2019-02-15T00:27:57.215Z,68.53
2019-02-15T00:30:28.967Z,73.27
2019-02-15T00:32:57.607Z,64.57
2019-02-15T00:35:26.254Z,72.00
2019-02-15T00:37:54.804Z,63.03
2019-02-15T00:40:23.308Z,63.87
2019-02-15T00:42:51.972Z,66.70
2019-02-15T00:45:22.170Z,58.07
2019-02-15T00:47:52.379Z,63.43
2019-02-15T00:50:22.675Z,68.57
2019-02-15T00:52:52.866Z,59.50
2019-02-15T00:55:25.792Z,58.07
2019-02-15T00:57:58.850Z,73.27
2019-02-15T01:00:31.660Z,67.03
2019-02-15T01:03:17.156Z,74.60
2019-02-15T01:05:47.353Z,73.67
2019-02-15T01:08:20.128Z,69.07
2019-02-15T01:10:50.428Z,63.33
2019-02-15T01:13:18.986Z,62.83
2019-02-15T01:15:47.609Z,73.40
2019-02-15T01:18:16.268Z,75.70
2019-02-15T01:20:44.837Z,67.53
2019-02-15T01:23:13.426Z,74.37
2019-02-15T01:25:43.691Z,74.93
2019-02-15T01:28:13.916Z,74.47
2019-02-15T01:30:46.807Z,71.43
2019-02-15T01:33:16.998Z,70.83
2019-02-15T01:35:56.113Z,66.67
2019-02-15T01:38:31.275Z,72.50
2019-02-15T01:41:13.048Z,71.43
2019-02-15T01:43:43.243Z,74.73
2019-02-15T01:46:15.821Z,68.67
2019-02-15T01:48:44.349Z,68.23
2019-02-15T01:51:12.988Z,65.60
2019-02-15T01:53:41.472Z,60.13
2019-02-15T01:56:10.025Z,63.37
2019-02-15T01:58:38.643Z,68.73
2019-02-15T02:01:07.331Z,72.40
2019-02-15T02:03:36.123Z,71.77
2019-02-15T02:06:04.971Z,76.03
2019-02-15T02:08:33.908Z,69.80
2019-02-15T02:11:02.561Z,64.93
2019-02-15T02:13:31.185Z,69.63
2019-02-15T02:15:59.786Z,70.57
2019-02-15T02:18:28.325Z,60.67
2019-02-15T02:20:56.896Z,71.83
2019-02-15T02:23:25.502Z,68.33
2019-02-15T02:25:54.093Z,71.53
2019-02-15T02:28:22.729Z,68.23
2019-02-15T02:30:51.288Z,66.30
2019-02-15T02:33:19.976Z,67.07
2019-02-15T02:35:48.710Z,69.07
2019-02-15T02:38:17.341Z,66.70
2019-02-15T02:40:45.935Z,68.13
2019-02-15T02:43:14.483Z,61.23
2019-02-15T02:45:42.965Z,68.60
2019-02-15T02:48:11.540Z,59.70
2019-02-15T02:50:40.099Z,64.20
2019-02-15T02:53:08.713Z,62.90
2019-02-15T02:55:37.307Z,65.50
2019-02-15T02:58:05.996Z,69.70
2019-02-15T03:00:34.636Z,70.83
2019-02-15T03:03:03.290Z,69.70
2019-02-15T03:05:31.925Z,70.40
2019-02-15T03:08:00.558Z,70.63
2019-02-15T03:10:29.197Z,65.37
2019-02-15T03:12:57.673Z,65.33
2019-02-15T03:15:26.286Z,65.47
2019-02-15T03:17:54.941Z,63.67
2019-02-15T03:20:30.936Z,65.83
2019-02-15T03:22:54.105Z,60.90
2019-02-15T03:25:22.703Z,61.40
2019-02-15T03:27:51.252Z,60.07
2019-02-15T03:30:19.796Z,63.50
2019-02-15T03:32:48.459Z,63.80
2019-02-15T03:35:17.016Z,54.90
2019-02-15T03:37:47.144Z,59.17
2019-02-15T03:40:20.432Z,62.07
2019-02-15T03:42:49.000Z,58.73
2019-02-15T03:45:18.318Z,50.80
2019-02-15T03:47:46.924Z,54.60
2019-02-15T03:50:15.538Z,69.40
2019-02-15T03:52:44.089Z,74.33
2019-02-15T03:55:12.749Z,65.90
2019-02-15T03:57:42.138Z,70.03
2019-02-15T04:00:12.659Z,69.17
2019-02-15T04:02:41.322Z,62.07
2019-02-15T04:05:09.959Z,66.70
2019-02-15T04:07:38.626Z,62.67
2019-02-15T04:10:09.379Z,62.93
2019-02-15T04:12:38.001Z,59.97
2019-02-15T04:15:07.911Z,59.63
2019-02-15T04:17:36.572Z,58.07
2019-02-15T04:20:07.923Z,55.37
2019-02-15T04:22:36.476Z,53.37
2019-02-15T04:25:05.929Z,58.10
2019-02-15T04:27:34.562Z,58.83
2019-02-15T04:30:03.189Z,61.33
2019-02-15T04:32:31.786Z,56.00
2019-02-15T04:35:00.320Z,52.33
2019-02-15T04:37:28.900Z,51.23
2019-02-15T04:39:57.481Z,52.83
2019-02-15T04:42:26.042Z,51.57
2019-02-15T04:44:54.531Z,49.27
2019-02-15T04:47:23.201Z,49.83
2019-02-15T04:49:51.772Z,53.53
2019-02-15T04:52:20.316Z,47.07
2019-02-15T04:54:48.923Z,50.50
2019-02-15T04:57:17.477Z,51.53
2019-02-15T04:59:46.031Z,48.27
2019-02-15T05:02:14.626Z,43.60
2019-02-15T05:04:43.104Z,44.67
2019-02-15T05:07:11.599Z,50.90
2019-02-15T05:09:40.110Z,51.27
2019-02-15T05:12:08.613Z,52.03
2019-02-15T05:14:37.087Z,59.60
2019-02-15T05:17:05.715Z,55.80
2019-02-15T05:19:34.193Z,57.37
2019-02-15T05:22:02.676Z,56.33
2019-02-15T05:24:31.209Z,57.63
2019-02-15T05:26:59.756Z,59.57
2019-02-15T05:29:28.308Z,57.90
2019-02-15T05:31:56.943Z,55.67
2019-02-15T05:34:25.422Z,58.80
2019-02-15T05:36:53.963Z,57.33
2019-02-15T05:39:22.555Z,55.40
2019-02-15T05:41:51.110Z,58.97
2019-02-15T05:44:19.776Z,56.43
2019-02-15T05:46:49.897Z,56.67
2019-02-15T05:49:18.516Z,61.00
2019-02-15T05:51:47.643Z,63.93
2019-02-15T05:54:16.787Z,69.17
2019-02-15T05:56:45.384Z,66.63
2019-02-15T05:59:13.977Z,60.63
2019-02-15T06:01:42.545Z,63.50
2019-02-15T06:04:11.073Z,63.60
2019-02-15T06:06:39.562Z,59.30
2019-02-15T06:09:08.169Z,56.93
2019-02-15T06:11:36.789Z,61.27
2019-02-15T06:14:05.274Z,61.73
2019-02-15T06:16:33.861Z,60.47
2019-02-15T06:19:02.494Z,61.67
2019-02-15T06:21:31.081Z,63.27
2019-02-15T06:23:59.693Z,63.10
2019-02-15T06:26:28.245Z,63.40
2019-02-15T06:28:56.805Z,61.43
2019-02-15T06:31:26.915Z,63.67
2019-02-15T06:33:57.109Z,60.40
2019-02-15T06:36:27.305Z,63.53
2019-02-15T06:38:57.467Z,60.83
2019-02-15T06:41:27.731Z,62.00
2019-02-15T06:43:57.847Z,59.50
2019-02-15T06:46:26.509Z,58.03
2019-02-15T06:48:55.072Z,59.93
2019-02-15T06:51:23.632Z,68.37
2019-02-15T06:53:52.151Z,61.43
2019-02-15T06:56:22.410Z,58.63
2019-02-15T06:58:58.059Z,60.50
2019-02-15T07:01:35.176Z,56.13
2019-02-15T07:04:05.343Z,59.87
2019-02-15T07:06:33.892Z,62.73
2019-02-15T07:09:02.451Z,57.17
2019-02-15T07:11:30.962Z,58.97
2019-02-15T07:14:01.199Z,58.73
2019-02-15T07:16:29.687Z,57.60
2019-02-15T07:18:59.860Z,59.50
2019-02-15T07:21:28.556Z,56.63
2019-02-15T07:23:57.262Z,59.10
2019-02-15T07:26:27.358Z,50.93
2019-02-15T07:28:57.602Z,55.37
2019-02-15T07:31:26.103Z,61.10
2019-02-15T07:33:54.631Z,59.97
2019-02-15T07:36:23.237Z,56.33
2019-02-15T07:38:51.860Z,55.77
2019-02-15T07:41:20.471Z,61.87
2019-02-15T07:43:49.018Z,60.40
2019-02-15T07:46:17.707Z,62.00
2019-02-15T07:48:46.290Z,56.00
2019-02-15T07:51:14.975Z,57.30
2019-02-15T07:53:43.540Z,55.30
2019-02-15T07:56:12.144Z,58.03
2019-02-15T07:58:40.700Z,56.13
2019-02-15T08:01:09.270Z,53.83
2019-02-15T08:03:37.918Z,62.43
2019-02-15T08:06:06.479Z,52.53
2019-02-15T08:08:34.957Z,53.70
2019-02-15T08:11:03.609Z,58.70
2019-02-15T08:13:32.298Z,50.87
2019-02-15T08:16:02.685Z,52.30
2019-02-15T08:18:31.032Z,48.77
2019-02-15T08:20:59.589Z,46.27
2019-02-15T08:23:28.153Z,49.43
2019-02-15T08:25:56.762Z,48.70
2019-02-15T08:28:25.327Z,52.47
2019-02-15T08:30:53.937Z,52.90
2019-02-15T08:33:22.617Z,58.17
2019-02-15T08:35:51.114Z,49.37
2019-02-15T08:38:19.749Z,55.83
2019-02-15T08:40:48.321Z,50.73
2019-02-15T08:43:16.805Z,47.30
2019-02-15T08:45:45.439Z,48.87
2019-02-15T08:48:14.032Z,54.17
2019-02-15T08:50:42.699Z,47.83
2019-02-15T08:53:11.187Z,64.77
2019-02-15T08:55:40.707Z,55.37
2019-02-15T08:58:11.278Z,56.83
2019-02-15T09:00:39.473Z,52.20
2019-02-15T09:03:08.094Z,46.47
2019-02-15T09:05:36.655Z,52.73
2019-02-15T09:08:06.101Z,48.60
2019-02-15T09:10:34.709Z,45.67
2019-02-15T09:13:03.278Z,49.43
2019-02-15T09:15:31.838Z,45.63
2019-02-15T09:18:00.506Z,43.53
2019-02-15T09:20:28.998Z,41.10
2019-02-15T09:22:57.623Z,45.43
2019-02-15T09:25:26.218Z,49.27
2019-02-15T09:28:14.517Z,37.93
2019-02-15T09:30:45.578Z,41.83
2019-02-15T09:33:17.110Z,47.27
2019-02-15T09:35:47.380Z,47.43
2019-02-15T09:38:17.700Z,44.10
2019-02-15T09:40:51.574Z,50.77
2019-02-15T09:43:21.713Z,55.63
2019-02-15T09:45:51.908Z,48.87
2019-02-15T09:48:20.622Z,46.90
2019-02-15T09:50:49.158Z,49.57
2019-02-15T09:53:17.660Z,41.40
2019-02-15T09:55:46.163Z,47.33
2019-02-15T09:58:16.484Z,49.10
2019-02-15T10:00:45.477Z,47.50
2019-02-15T10:03:14.034Z,44.57
2019-02-15T10:05:42.699Z,49.97
2019-02-15T10:08:11.373Z,46.47
2019-02-15T10:10:39.945Z,41.13
2019-02-15T10:13:08.608Z,37.63
2019-02-15T10:15:37.162Z,38.30
2019-02-15T10:18:05.796Z,36.13
2019-02-15T10:20:34.495Z,33.10
2019-02-15T10:23:05.595Z,34.37
2019-02-15T10:25:34.221Z,34.33
2019-02-15T10:28:07.447Z,34.83
2019-02-15T10:30:36.010Z,31.70
2019-02-15T10:33:04.731Z,33.83
2019-02-15T10:35:33.373Z,31.77
2019-02-15T10:38:01.865Z,28.03
2019-02-15T10:40:30.498Z,30.10
2019-02-15T10:42:59.125Z,29.27
2019-02-15T10:45:27.690Z,30.30
2019-02-15T10:47:56.315Z,29.37
2019-02-15T10:50:24.886Z,30.87
2019-02-15T10:52:53.595Z,30.43
2019-02-15T10:55:22.240Z,26.53
2019-02-15T10:57:50.907Z,31.37
2019-02-15T11:00:20.520Z,29.93
2019-02-15T11:02:52.263Z,32.53
2019-02-15T11:05:20.866Z,30.57
2019-02-15T11:07:49.368Z,32.97
2019-02-15T11:10:17.997Z,32.43
2019-02-15T11:12:46.617Z,31.30
2019-02-15T11:15:16.998Z,32.13
2019-02-15T11:17:45.612Z,32.73
2019-02-15T11:20:16.967Z,30.17
2019-02-15T11:22:45.608Z,31.03
2019-02-15T11:25:14.305Z,29.93
2019-02-15T11:27:42.960Z,33.83
2019-02-15T11:30:13.912Z,38.50
2019-02-15T11:32:42.548Z,32.40
2019-02-15T11:35:12.914Z,30.90
2019-02-15T11:37:41.538Z,26.83
2019-02-15T11:40:15.192Z,28.80
2019-02-15T11:42:43.866Z,23.63
2019-02-15T11:45:16.219Z,26.37
2019-02-15T11:47:44.705Z,25.87
2019-02-15T11:50:14.471Z,25.43
2019-02-15T11:52:43.100Z,24.80
2019-02-15T11:55:11.947Z,25.00
2019-02-15T11:57:40.884Z,25.73
2019-02-15T12:00:14.844Z,24.13
2019-02-15T12:02:43.597Z,22.90
2019-02-15T12:05:13.243Z,23.73
2019-02-15T12:07:41.923Z,24.80
2019-02-15T12:10:11.477Z,29.57
2019-02-15T12:12:40.152Z,24.67
2019-02-15T12:15:10.649Z,27.97
2019-02-15T12:17:39.288Z,23.10
2019-02-15T12:20:13.411Z,24.37
2019-02-15T12:22:42.047Z,28.07
2019-02-15T12:25:10.741Z,26.80
2019-02-15T12:27:39.403Z,23.77
2019-02-15T12:30:13.207Z,28.10
2019-02-15T12:32:41.851Z,28.60
2019-02-15T12:35:11.249Z,28.23
2019-02-15T12:37:39.815Z,27.10
2019-02-15T12:40:10.035Z,24.43
2019-02-15T12:42:38.699Z,28.90
2019-02-15T12:45:10.225Z,24.70
2019-02-15T12:47:39.048Z,23.53
2019-02-15T12:50:16.301Z,23.73
2019-02-15T12:52:44.931Z,22.63
2019-02-15T12:55:13.642Z,25.13
2019-02-15T12:57:42.235Z,25.80
2019-02-15T13:00:13.355Z,25.23
2019-02-15T13:02:41.927Z,22.73
2019-02-15T13:05:11.787Z,22.10
2019-02-15T13:07:40.514Z,23.87
2019-02-15T13:10:12.388Z,23.47
2019-02-15T13:12:41.130Z,24.63
2019-02-15T13:15:11.371Z,26.37
2019-02-15T13:17:40.000Z,23.07
2019-02-15T13:20:10.166Z,19.73
2019-02-15T13:22:38.781Z,20.20
2019-02-15T13:25:08.418Z,33.33
2019-02-15T13:27:37.084Z,31.53
2019-02-15T13:30:08.945Z,19.87
2019-02-15T13:32:37.536Z,17.33
2019-02-15T13:35:08.468Z,18.40
2019-02-15T13:37:37.100Z,18.57
2019-02-15T13:40:07.943Z,20.73
2019-02-15T13:42:36.597Z,19.70
2019-02-15T13:45:07.672Z,19.23
2019-02-15T13:47:36.308Z,18.50
2019-02-15T13:50:06.991Z,18.53
2019-02-15T13:52:35.924Z,16.33
2019-02-15T13:55:05.562Z,16.07
2019-02-15T13:57:34.169Z,16.23
2019-02-15T14:00:02.906Z,13.10
2019-02-15T14:02:31.537Z,15.77
2019-02-15T14:05:00.287Z,14.77
2019-02-15T14:07:29.037Z,14.47
2019-02-15T14:09:57.677Z,17.03
2019-02-15T14:12:26.331Z,14.17
2019-02-15T14:14:54.891Z,14.20
2019-02-15T14:17:23.453Z,15.80
2019-02-15T14:19:52.096Z,12.47
2019-02-15T14:22:20.874Z,20.70
2019-02-15T14:24:49.556Z,15.60
2019-02-15T14:27:18.225Z,14.17
2019-02-15T14:29:46.871Z,13.83
2019-02-15T14:32:15.537Z,13.20
2019-02-15T14:34:44.121Z,14.80
2019-02-15T14:37:12.685Z,16.33
2019-02-15T14:39:41.346Z,17.70
2019-02-15T14:42:10.061Z,19.33
2019-02-15T14:44:40.237Z,17.53
2019-02-15T14:47:08.766Z,13.77
2019-02-15T14:49:37.360Z,14.73
2019-02-15T14:52:06.004Z,16.37
2019-02-15T14:54:34.557Z,16.37
2019-02-15T14:57:03.147Z,18.40
2019-02-15T14:59:31.711Z,15.10
2019-02-15T15:02:00.486Z,13.87
2019-02-15T15:04:29.017Z,13.87
2019-02-15T15:06:57.520Z,12.13
2019-02-15T15:09:26.166Z,17.77
2019-02-15T15:11:54.750Z,18.17
2019-02-15T15:14:23.383Z,23.83
2019-02-15T15:16:51.951Z,18.00
2019-02-15T15:19:20.694Z,16.47
2019-02-15T15:21:49.273Z,16.87
2019-02-15T15:24:17.823Z,16.10
2019-02-15T15:26:46.482Z,15.87
2019-02-15T15:29:15.222Z,15.63
2019-02-15T15:31:43.796Z,16.60
2019-02-15T15:34:12.462Z,17.13
2019-02-15T15:36:41.101Z,15.83
2019-02-15T15:39:11.365Z,16.27
2019-02-15T15:41:40.029Z,16.43
2019-02-15T15:44:08.653Z,13.37
2019-02-15T15:46:37.291Z,14.43
2019-02-15T15:49:05.967Z,12.93
2019-02-15T15:51:34.611Z,13.83
2019-02-15T15:54:03.257Z,17.03
2019-02-15T15:56:31.781Z,16.03
2019-02-15T15:59:00.419Z,18.40
2019-02-15T16:01:28.996Z,17.30
2019-02-15T16:03:57.735Z,20.47
2019-02-15T16:06:26.325Z,24.17
2019-02-15T16:08:54.935Z,19.87
2019-02-15T16:11:23.609Z,26.03
2019-02-15T16:13:52.166Z,22.67
2019-02-15T16:16:20.988Z,22.63
2019-02-15T16:18:49.631Z,23.87
2019-02-15T16:21:18.207Z,25.03
2019-02-15T16:23:46.775Z,25.50
2019-02-15T16:26:15.481Z,25.53
2019-02-15T16:28:44.027Z,24.67
2019-02-15T16:31:12.588Z,25.43
2019-02-15T16:33:41.265Z,28.97
2019-02-15T16:36:09.829Z,29.33
2019-02-15T16:38:38.398Z,28.60
2019-02-15T16:41:06.994Z,29.30
2019-02-15T16:43:35.567Z,28.87
2019-02-15T16:46:04.130Z,23.47
2019-02-15T16:48:41.742Z,26.53
2019-02-15T16:51:03.141Z,58.50
2019-02-15T16:53:31.825Z,33.27
2019-02-15T16:56:00.419Z,27.33
2019-02-15T16:58:28.974Z,34.17
2019-02-15T17:00:57.615Z,25.93
2019-02-15T17:03:26.350Z,23.57
2019-02-15T17:05:54.901Z,26.47
2019-02-15T17:08:23.585Z,21.00
2019-02-15T17:10:52.278Z,51.80
2019-02-15T17:13:20.842Z,156.40
2019-02-15T17:15:49.379Z,207.57
2019-02-15T17:18:17.907Z,145.90
2019-02-15T17:20:46.481Z,86.10
2019-02-15T17:23:15.088Z,80.50
2019-02-15T17:25:45.722Z,101.93
2019-02-15T17:28:13.910Z,95.07
2019-02-15T17:30:42.405Z,317.63
2019-02-15T17:33:10.958Z,313.57
2019-02-15T17:35:39.584Z,416.80
2019-02-15T17:38:08.217Z,319.90
2019-02-15T17:40:36.826Z,310.17
2019-02-15T17:43:05.472Z,277.87
2019-02-15T17:45:34.129Z,246.23
2019-02-15T17:48:02.796Z,219.17
2019-02-15T17:50:31.517Z,208.57
2019-02-15T17:53:00.078Z,173.27
2019-02-15T17:55:28.815Z,184.60
2019-02-15T17:57:57.506Z,201.23
2019-02-15T18:00:27.725Z,199.93
2019-02-15T18:02:56.520Z,154.90
2019-02-15T18:05:25.220Z,158.27
2019-02-15T18:07:53.823Z,144.53
2019-02-15T18:10:22.492Z,156.10
2019-02-15T18:12:51.078Z,141.77
2019-02-15T18:15:19.697Z,121.63
2019-02-15T18:17:48.406Z,173.90
2019-02-15T18:20:17.023Z,202.17
2019-02-15T18:22:45.656Z,196.87
2019-02-15T18:25:14.334Z,310.17
2019-02-15T18:27:43.052Z,337.80
2019-02-15T18:30:14.734Z,275.67
2019-02-15T18:32:43.401Z,248.73
2019-02-15T18:35:13.490Z,258.00
2019-02-15T18:37:42.184Z,234.63
2019-02-15T18:40:14.979Z,255.83
2019-02-15T18:42:45.249Z,258.13
2019-02-15T18:45:16.822Z,258.60
2019-02-15T18:47:45.567Z,316.97
2019-02-15T18:50:14.319Z,291.60
2019-02-15T18:52:42.968Z,331.97
2019-02-15T18:55:14.160Z,309.80
2019-02-15T18:57:42.982Z,302.57
2019-02-15T19:00:16.283Z,249.87
2019-02-15T19:02:49.056Z,269.43
2019-02-15T19:05:19.339Z,286.10
2019-02-15T19:07:48.095Z,302.33
2019-02-15T19:10:19.053Z,252.30
2019-02-15T19:12:51.705Z,217.30
2019-02-15T19:15:20.313Z,261.27
2019-02-15T19:17:49.037Z,418.73
2019-02-15T19:20:19.161Z,450.17
2019-02-15T19:22:49.188Z,446.00
2019-02-15T19:25:19.856Z,462.07
2019-02-15T19:27:48.507Z,454.17
2019-02-15T19:30:23.263Z,478.97
2019-02-15T19:32:52.029Z,359.83
2019-02-15T19:35:20.666Z,412.20
2019-02-15T19:37:52.226Z,242.33
2019-02-15T19:40:21.229Z,355.73
2019-02-15T19:42:52.515Z,303.53
2019-02-15T19:45:21.238Z,330.47
2019-02-15T19:47:49.837Z,295.63
2019-02-15T19:50:18.946Z,271.47
2019-02-15T19:52:49.019Z,266.53
2019-02-15T19:55:17.833Z,367.83
2019-02-15T19:57:46.891Z,286.07
2019-02-15T20:00:17.892Z,296.77
2019-02-15T20:02:46.716Z,312.30
2019-02-15T20:05:15.365Z,267.57
2019-02-15T20:07:44.294Z,235.30
2019-02-15T20:10:19.520Z,399.63
2019-02-15T20:12:48.147Z,398.57
2019-02-15T20:15:16.859Z,417.13
2019-02-15T20:17:45.728Z,450.30
2019-02-15T20:20:16.610Z,437.70
2019-02-15T20:22:45.240Z,461.43
2019-02-15T20:25:14.522Z,492.83
2019-02-15T20:27:43.172Z,417.47
2019-02-15T20:30:14.709Z,422.60
2019-02-15T20:32:43.487Z,382.00
2019-02-15T20:35:13.603Z,424.20
2019-02-15T20:37:42.549Z,409.80
2019-02-15T20:40:12.994Z,347.07
2019-02-15T20:42:44.682Z,314.40
2019-02-15T20:45:16.210Z,307.60
2019-02-15T20:47:48.089Z,366.33
2019-02-15T20:50:19.078Z,392.87
2019-02-15T20:52:49.461Z,404.00
2019-02-15T20:55:20.369Z,357.47
2019-02-15T20:57:50.580Z,329.37
2019-02-15T21:00:31.453Z,368.57
2019-02-15T21:03:01.630Z,379.00
2019-02-15T21:05:30.311Z,320.87
2019-02-15T21:07:58.979Z,380.77
2019-02-15T21:10:29.051Z,341.90
2019-02-15T21:12:57.629Z,328.73
2019-02-15T21:15:26.342Z,246.00
2019-02-15T21:17:57.877Z,212.13
2019-02-15T21:20:26.506Z,329.83
2019-02-15T21:22:55.179Z,344.33
2019-02-15T21:25:25.321Z,310.93
2019-02-15T21:27:55.604Z,331.60
2019-02-15T21:30:24.362Z,351.13
2019-02-15T21:32:52.945Z,357.43
2019-02-15T21:35:23.053Z,426.47
2019-02-15T21:37:51.750Z,439.03
2019-02-15T21:40:20.301Z,447.70
2019-02-15T21:42:48.939Z,447.77
2019-02-15T21:45:19.249Z,432.83
2019-02-15T21:47:48.090Z,389.83
2019-02-15T21:50:17.753Z,456.03
2019-02-15T21:52:46.701Z,393.70
2019-02-15T21:55:16.941Z,456.23
2019-02-15T21:57:45.608Z,737.00
2019-02-15T22:00:17.186Z,445.13
2019-02-15T22:02:45.970Z,409.87
2019-02-15T22:05:16.934Z,406.27
2019-02-15T22:07:47.069Z,552.13
2019-02-15T22:10:20.984Z,485.23
2019-02-15T22:12:49.552Z,644.87
2019-02-15T22:15:18.668Z,516.57
2019-02-15T22:17:47.311Z,487.33
2019-02-15T22:20:25.976Z,443.67
2019-02-15T22:22:47.250Z,399.97
2019-02-15T22:25:16.009Z,362.37
2019-02-15T22:27:44.623Z,300.57
2019-02-15T22:30:20.448Z,286.10
2019-02-15T22:32:49.086Z,278.73
2019-02-15T22:35:17.579Z,243.33
2019-02-15T22:37:46.199Z,260.17
2019-02-15T22:40:26.403Z,202.97
2019-02-15T22:42:54.925Z,245.13
2019-02-15T22:45:23.560Z,199.80
2019-02-15T22:47:52.186Z,275.20
2019-02-15T22:50:20.873Z,209.97
2019-02-15T22:52:49.473Z,256.50
2019-02-15T22:55:18.115Z,246.50
2019-02-15T22:57:48.417Z,216.70
2019-02-15T23:00:48.176Z,303.50
2019-02-15T23:03:18.695Z,374.77
2019-02-15T23:05:47.329Z,409.07
2019-02-15T23:08:15.960Z,432.03
2019-02-15T23:10:44.558Z,401.03
2019-02-15T23:13:13.154Z,368.23
2019-02-15T23:15:41.865Z,343.10
2019-02-15T23:18:10.534Z,296.60
2019-02-15T23:20:45.104Z,277.33
2019-02-15T23:23:09.578Z,317.17
2019-02-15T23:25:38.278Z,280.90
2019-02-15T23:28:06.975Z,253.97
2019-02-15T23:30:35.549Z,298.70
2019-02-15T23:33:04.162Z,296.53
2019-02-15T23:35:32.750Z,352.20
2019-02-15T23:38:02.893Z,294.77
2019-02-15T23:40:31.652Z,294.43
2019-02-15T23:43:00.265Z,285.17
2019-02-15T23:45:28.900Z,258.47
2019-02-15T23:47:57.508Z,238.40
2019-02-15T23:50:26.138Z,243.83
2019-02-15T23:52:54.773Z,225.43
2019-02-15T23:55:23.312Z,214.03
2019-02-15T23:57:51.956Z,190.93
